sensor_id;sensor_type;location;lat;lon;timestamp;P1;durP1;ratioP1;P2;durP2;ratioP2
19754;SDS011;10036;47.812;9.274;2023-05-16T00:02:09;5.05;;;3.38;;
19754;SDS011;10036;47.812;9.274;2023-05-16T00:04:38;5.50;;;3.20;;
19754;SDS011;10036;47.812;9.274;2023-05-16T00:07:05;5.22;;;3.28;;
19754;SDS011;10036;47.812;9.274;2023-05-16T00:09:32;3.67;;;3.28;;
19754;SDS011;10036;47.812;9.274;2023-05-16T00:11:59;3.17;;;2.97;;
19754;SDS011;10036;47.812;9.274;2023-05-16T00:14:26;3.45;;;2.90;;
19754;SDS011;10036;47.812;9.274;2023-05-16T00:16:53;3.65;;;3.35;;
19754;SDS011;10036;47.812;9.274;2023-05-16T00:19:22;3.92;;;3.53;;
19754;SDS011;10036;47.812;9.274;2023-05-16T00:21:52;5.97;;;3.10;;
19754;SDS011;10036;47.812;9.274;2023-05-16T00:24:18;4.97;;;3.58;;
19754;SDS011;10036;47.812;9.274;2023-05-16T00:26:46;3.28;;;3.03;;
19754;SDS011;10036;47.812;9.274;2023-05-16T00:29:12;3.67;;;3.38;;
19754;SDS011;10036;47.812;9.274;2023-05-16T00:31:39;3.95;;;3.40;;
19754;SDS011;10036;47.812;9.274;2023-05-16T00:34:07;3.95;;;3.50;;
19754;SDS011;10036;47.812;9.274;2023-05-16T00:36:33;3.90;;;3.60;;
19754;SDS011;10036;47.812;9.274;2023-05-16T00:39:02;4.57;;;3.92;;
19754;SDS011;10036;47.812;9.274;2023-05-16T00:41:29;4.30;;;4.00;;
19754;SDS011;10036;47.812;9.274;2023-05-16T00:43:56;4.40;;;4.00;;
19754;SDS011;10036;47.812;9.274;2023-05-16T00:46:23;4.65;;;4.18;;
19754;SDS011;10036;47.812;9.274;2023-05-16T00:48:50;4.13;;;3.83;;
19754;SDS011;10036;47.812;9.274;2023-05-16T00:51:17;5.47;;;4.18;;
19754;SDS011;10036;47.812;9.274;2023-05-16T00:53:45;4.20;;;3.80;;
19754;SDS011;10036;47.812;9.274;2023-05-16T00:56:15;3.80;;;3.50;;
19754;SDS011;10036;47.812;9.274;2023-05-16T00:58:43;3.95;;;3.65;;
19754;SDS011;10036;47.812;9.274;2023-05-16T01:01:10;5.53;;;3.85;;
19754;SDS011;10036;47.812;9.274;2023-05-16T01:03:37;4.55;;;3.80;;
19754;SDS011;10036;47.812;9.274;2023-05-16T01:06:04;4.57;;;3.42;;
19754;SDS011;10036;47.812;9.274;2023-05-16T01:08:32;5.22;;;3.30;;
19754;SDS011;10036;47.812;9.274;2023-05-16T01:11:01;3.42;;;3.00;;
19754;SDS011;10036;47.812;9.274;2023-05-16T01:13:40;3.95;;;3.53;;
19754;SDS011;10036;47.812;9.274;2023-05-16T01:16:12;4.43;;;3.35;;
19754;SDS011;10036;47.812;9.274;2023-05-16T01:18:45;3.53;;;3.22;;
19754;SDS011;10036;47.812;9.274;2023-05-16T01:21:21;5.82;;;3.53;;
19754;SDS011;10036;47.812;9.274;2023-05-16T01:24:02;3.88;;;3.45;;
19754;SDS011;10036;47.812;9.274;2023-05-16T01:26:37;4.95;;;3.65;;
19754;SDS011;10036;47.812;9.274;2023-05-16T01:29:06;4.13;;;3.30;;
19754;SDS011;10036;47.812;9.274;2023-05-16T01:31:34;7.18;;;3.53;;
19754;SDS011;10036;47.812;9.274;2023-05-16T01:34:01;3.85;;;3.10;;
19754;SDS011;10036;47.812;9.274;2023-05-16T01:36:32;5.28;;;3.30;;
19754;SDS011;10036;47.812;9.274;2023-05-16T01:39:06;4.18;;;3.78;;
19754;SDS011;10036;47.812;9.274;2023-05-16T01:41:42;4.80;;;3.63;;
19754;SDS011;10036;47.812;9.274;2023-05-16T01:44:19;3.60;;;3.13;;
19754;SDS011;10036;47.812;9.274;2023-05-16T01:46:51;5.05;;;3.28;;
19754;SDS011;10036;47.812;9.274;2023-05-16T01:49:26;6.25;;;3.45;;
19754;SDS011;10036;47.812;9.274;2023-05-16T01:51:59;8.18;;;3.53;;
19754;SDS011;10036;47.812;9.274;2023-05-16T01:54:30;3.67;;;3.15;;
19754;SDS011;10036;47.812;9.274;2023-05-16T01:57:04;7.55;;;3.20;;
19754;SDS011;10036;47.812;9.274;2023-05-16T01:59:32;3.05;;;2.80;;
19754;SDS011;10036;47.812;9.274;2023-05-16T02:02:00;3.58;;;3.28;;
19754;SDS011;10036;47.812;9.274;2023-05-16T02:04:27;3.92;;;3.60;;
19754;SDS011;10036;47.812;9.274;2023-05-16T02:06:54;5.63;;;3.88;;
19754;SDS011;10036;47.812;9.274;2023-05-16T02:09:22;5.07;;;3.85;;
19754;SDS011;10036;47.812;9.274;2023-05-16T02:11:50;4.75;;;4.05;;
19754;SDS011;10036;47.812;9.274;2023-05-16T02:14:18;6.78;;;4.07;;
19754;SDS011;10036;47.812;9.274;2023-05-16T02:16:45;4.05;;;3.72;;
19754;SDS011;10036;47.812;9.274;2023-05-16T02:19:12;5.75;;;3.65;;
19754;SDS011;10036;47.812;9.274;2023-05-16T02:21:41;3.83;;;3.33;;
19754;SDS011;10036;47.812;9.274;2023-05-16T02:24:08;3.65;;;3.30;;
19754;SDS011;10036;47.812;9.274;2023-05-16T02:26:35;3.78;;;3.30;;
19754;SDS011;10036;47.812;9.274;2023-05-16T02:29:02;4.72;;;3.70;;
19754;SDS011;10036;47.812;9.274;2023-05-16T02:31:31;4.43;;;3.50;;
19754;SDS011;10036;47.812;9.274;2023-05-16T02:33:59;8.65;;;4.20;;
19754;SDS011;10036;47.812;9.274;2023-05-16T02:36:26;7.50;;;4.60;;
19754;SDS011;10036;47.812;9.274;2023-05-16T02:38:53;9.75;;;4.85;;
19754;SDS011;10036;47.812;9.274;2023-05-16T02:41:20;8.52;;;5.60;;
19754;SDS011;10036;47.812;9.274;2023-05-16T02:43:48;7.10;;;5.38;;
19754;SDS011;10036;47.812;9.274;2023-05-16T02:46:21;7.18;;;5.50;;
19754;SDS011;10036;47.812;9.274;2023-05-16T02:48:51;5.35;;;4.88;;
19754;SDS011;10036;47.812;9.274;2023-05-16T02:51:18;6.88;;;5.25;;
19754;SDS011;10036;47.812;9.274;2023-05-16T02:53:46;5.68;;;5.13;;
19754;SDS011;10036;47.812;9.274;2023-05-16T02:56:13;5.80;;;5.28;;
19754;SDS011;10036;47.812;9.274;2023-05-16T02:58:40;5.43;;;4.93;;
19754;SDS011;10036;47.812;9.274;2023-05-16T03:01:07;5.90;;;5.38;;
19754;SDS011;10036;47.812;9.274;2023-05-16T03:03:34;5.57;;;4.90;;
19754;SDS011;10036;47.812;9.274;2023-05-16T03:06:03;5.75;;;5.20;;
19754;SDS011;10036;47.812;9.274;2023-05-16T03:08:30;6.22;;;5.25;;
19754;SDS011;10036;47.812;9.274;2023-05-16T03:10:57;6.45;;;5.43;;
19754;SDS011;10036;47.812;9.274;2023-05-16T03:13:24;5.70;;;5.20;;
19754;SDS011;10036;47.812;9.274;2023-05-16T03:15:51;4.88;;;4.35;;
19754;SDS011;10036;47.812;9.274;2023-05-16T03:18:18;5.60;;;4.93;;
19754;SDS011;10036;47.812;9.274;2023-05-16T03:20:45;4.88;;;4.38;;
19754;SDS011;10036;47.812;9.274;2023-05-16T03:23:13;6.68;;;4.50;;
19754;SDS011;10036;47.812;9.274;2023-05-16T03:25:40;5.07;;;4.57;;
19754;SDS011;10036;47.812;9.274;2023-05-16T03:28:07;4.70;;;4.25;;
19754;SDS011;10036;47.812;9.274;2023-05-16T03:30:34;6.15;;;4.35;;
19754;SDS011;10036;47.812;9.274;2023-05-16T03:33:01;5.38;;;4.45;;
19754;SDS011;10036;47.812;9.274;2023-05-16T03:35:29;5.18;;;4.68;;
19754;SDS011;10036;47.812;9.274;2023-05-16T03:37:56;6.47;;;4.97;;
19754;SDS011;10036;47.812;9.274;2023-05-16T03:40:25;4.88;;;4.40;;
19754;SDS011;10036;47.812;9.274;2023-05-16T03:42:52;5.07;;;4.55;;
19754;SDS011;10036;47.812;9.274;2023-05-16T03:45:19;9.77;;;6.15;;
19754;SDS011;10036;47.812;9.274;2023-05-16T03:47:47;7.28;;;5.40;;
19754;SDS011;10036;47.812;9.274;2023-05-16T03:50:15;9.10;;;5.85;;
19754;SDS011;10036;47.812;9.274;2023-05-16T03:52:41;8.18;;;6.35;;
19754;SDS011;10036;47.812;9.274;2023-05-16T03:55:09;7.88;;;6.13;;
19754;SDS011;10036;47.812;9.274;2023-05-16T03:57:41;9.90;;;6.70;;
19754;SDS011;10036;47.812;9.274;2023-05-16T04:00:09;12.52;;;6.80;;
19754;SDS011;10036;47.812;9.274;2023-05-16T04:02:37;9.57;;;6.30;;
19754;SDS011;10036;47.812;9.274;2023-05-16T04:05:08;8.23;;;6.32;;
19754;SDS011;10036;47.812;9.274;2023-05-16T04:07:35;7.68;;;6.20;;
19754;SDS011;10036;47.812;9.274;2023-05-16T04:10:03;9.77;;;7.20;;
19754;SDS011;10036;47.812;9.274;2023-05-16T04:12:30;7.03;;;6.32;;
19754;SDS011;10036;47.812;9.274;2023-05-16T04:14:58;6.93;;;6.22;;
19754;SDS011;10036;47.812;9.274;2023-05-16T04:17:25;10.20;;;6.55;;
19754;SDS011;10036;47.812;9.274;2023-05-16T04:19:52;9.68;;;7.07;;
19754;SDS011;10036;47.812;9.274;2023-05-16T04:22:21;9.40;;;7.20;;
19754;SDS011;10036;47.812;9.274;2023-05-16T04:24:48;9.80;;;6.97;;
19754;SDS011;10036;47.812;9.274;2023-05-16T04:27:15;8.20;;;6.72;;
19754;SDS011;10036;47.812;9.274;2023-05-16T04:29:42;17.25;;;7.90;;
19754;SDS011;10036;47.812;9.274;2023-05-16T04:32:10;8.55;;;6.95;;
19754;SDS011;10036;47.812;9.274;2023-05-16T04:34:37;7.90;;;6.63;;
19754;SDS011;10036;47.812;9.274;2023-05-16T04:37:08;8.88;;;7.45;;
19754;SDS011;10036;47.812;9.274;2023-05-16T04:39:35;8.57;;;7.07;;
19754;SDS011;10036;47.812;9.274;2023-05-16T04:42:02;11.40;;;7.43;;
19754;SDS011;10036;47.812;9.274;2023-05-16T04:44:32;8.23;;;7.35;;
19754;SDS011;10036;47.812;9.274;2023-05-16T04:46:59;10.23;;;8.07;;
19754;SDS011;10036;47.812;9.274;2023-05-16T04:49:28;11.20;;;8.90;;
19754;SDS011;10036;47.812;9.274;2023-05-16T04:51:55;11.85;;;9.00;;
19754;SDS011;10036;47.812;9.274;2023-05-16T04:54:21;12.43;;;8.98;;
19754;SDS011;10036;47.812;9.274;2023-05-16T04:56:48;12.05;;;9.48;;
19754;SDS011;10036;47.812;9.274;2023-05-16T04:59:15;11.02;;;9.57;;
19754;SDS011;10036;47.812;9.274;2023-05-16T05:01:42;12.95;;;9.88;;
19754;SDS011;10036;47.812;9.274;2023-05-16T05:04:09;13.48;;;9.80;;
19754;SDS011;10036;47.812;9.274;2023-05-16T05:06:37;11.27;;;9.77;;
19754;SDS011;10036;47.812;9.274;2023-05-16T05:09:05;15.13;;;11.02;;
19754;SDS011;10036;47.812;9.274;2023-05-16T05:11:32;16.08;;;11.45;;
19754;SDS011;10036;47.812;9.274;2023-05-16T05:13:59;15.73;;;12.25;;
19754;SDS011;10036;47.812;9.274;2023-05-16T05:16:26;16.85;;;13.45;;
19754;SDS011;10036;47.812;9.274;2023-05-16T05:18:53;17.85;;;13.38;;
19754;SDS011;10036;47.812;9.274;2023-05-16T05:21:20;23.77;;;15.02;;
19754;SDS011;10036;47.812;9.274;2023-05-16T05:23:50;29.67;;;20.45;;
19754;SDS011;10036;47.812;9.274;2023-05-16T05:26:17;33.42;;;21.70;;
19754;SDS011;10036;47.812;9.274;2023-05-16T05:28:46;35.05;;;22.23;;
19754;SDS011;10036;47.812;9.274;2023-05-16T05:31:15;36.85;;;24.70;;
19754;SDS011;10036;47.812;9.274;2023-05-16T05:33:42;36.50;;;24.05;;
19754;SDS011;10036;47.812;9.274;2023-05-16T05:36:10;37.92;;;24.27;;
19754;SDS011;10036;47.812;9.274;2023-05-16T05:38:36;35.28;;;23.85;;
19754;SDS011;10036;47.812;9.274;2023-05-16T05:41:05;39.20;;;24.63;;
19754;SDS011;10036;47.812;9.274;2023-05-16T05:43:32;39.40;;;24.55;;
19754;SDS011;10036;47.812;9.274;2023-05-16T05:45:59;36.65;;;23.52;;
19754;SDS011;10036;47.812;9.274;2023-05-16T05:48:26;36.92;;;23.92;;
19754;SDS011;10036;47.812;9.274;2023-05-16T05:50:54;38.90;;;23.45;;
19754;SDS011;10036;47.812;9.274;2023-05-16T05:53:21;36.92;;;22.80;;
19754;SDS011;10036;47.812;9.274;2023-05-16T05:55:48;36.60;;;24.85;;
19754;SDS011;10036;47.812;9.274;2023-05-16T05:58:16;36.65;;;23.52;;
19754;SDS011;10036;47.812;9.274;2023-05-16T06:00:43;40.85;;;24.38;;
19754;SDS011;10036;47.812;9.274;2023-05-16T06:03:10;34.25;;;23.83;;
19754;SDS011;10036;47.812;9.274;2023-05-16T06:05:38;36.97;;;24.20;;
19754;SDS011;10036;47.812;9.274;2023-05-16T06:08:05;36.78;;;23.77;;
19754;SDS011;10036;47.812;9.274;2023-05-16T06:10:35;36.63;;;25.08;;
19754;SDS011;10036;47.812;9.274;2023-05-16T06:13:01;33.38;;;23.33;;
19754;SDS011;10036;47.812;9.274;2023-05-16T06:15:30;34.45;;;22.98;;
19754;SDS011;10036;47.812;9.274;2023-05-16T06:17:57;34.65;;;24.17;;
19754;SDS011;10036;47.812;9.274;2023-05-16T06:20:24;35.80;;;24.27;;
19754;SDS011;10036;47.812;9.274;2023-05-16T06:22:53;36.10;;;23.38;;
19754;SDS011;10036;47.812;9.274;2023-05-16T06:25:23;38.95;;;24.10;;
19754;SDS011;10036;47.812;9.274;2023-05-16T06:27:50;38.33;;;23.25;;
19754;SDS011;10036;47.812;9.274;2023-05-16T06:30:17;34.63;;;23.20;;
19754;SDS011;10036;47.812;9.274;2023-05-16T06:32:45;33.03;;;22.77;;
19754;SDS011;10036;47.812;9.274;2023-05-16T06:35:12;36.58;;;22.65;;
19754;SDS011;10036;47.812;9.274;2023-05-16T06:37:38;36.50;;;24.42;;
19754;SDS011;10036;47.812;9.274;2023-05-16T06:40:06;33.53;;;23.15;;
19754;SDS011;10036;47.812;9.274;2023-05-16T06:42:33;34.95;;;23.13;;
19754;SDS011;10036;47.812;9.274;2023-05-16T06:45:00;37.75;;;23.67;;
19754;SDS011;10036;47.812;9.274;2023-05-16T06:47:27;34.08;;;22.92;;
19754;SDS011;10036;47.812;9.274;2023-05-16T06:49:55;33.47;;;23.23;;
19754;SDS011;10036;47.812;9.274;2023-05-16T06:52:22;32.03;;;21.83;;
19754;SDS011;10036;47.812;9.274;2023-05-16T06:54:48;32.92;;;19.90;;
19754;SDS011;10036;47.812;9.274;2023-05-16T06:57:16;27.90;;;20.20;;
19754;SDS011;10036;47.812;9.274;2023-05-16T06:59:43;29.65;;;20.55;;
19754;SDS011;10036;47.812;9.274;2023-05-16T07:02:09;27.98;;;19.50;;
19754;SDS011;10036;47.812;9.274;2023-05-16T07:04:36;26.88;;;19.02;;
19754;SDS011;10036;47.812;9.274;2023-05-16T07:07:05;26.35;;;18.67;;
19754;SDS011;10036;47.812;9.274;2023-05-16T07:09:33;28.45;;;19.73;;
19754;SDS011;10036;47.812;9.274;2023-05-16T07:11:59;27.48;;;18.73;;
19754;SDS011;10036;47.812;9.274;2023-05-16T07:14:26;25.15;;;18.63;;
19754;SDS011;10036;47.812;9.274;2023-05-16T07:16:53;27.25;;;18.73;;
19754;SDS011;10036;47.812;9.274;2023-05-16T07:19:20;30.27;;;18.90;;
19754;SDS011;10036;47.812;9.274;2023-05-16T07:21:47;27.02;;;18.90;;
19754;SDS011;10036;47.812;9.274;2023-05-16T07:24:15;24.73;;;18.10;;
19754;SDS011;10036;47.812;9.274;2023-05-16T07:26:42;26.60;;;19.83;;
19754;SDS011;10036;47.812;9.274;2023-05-16T07:29:11;28.35;;;18.35;;
19754;SDS011;10036;47.812;9.274;2023-05-16T07:31:38;26.63;;;18.83;;
19754;SDS011;10036;47.812;9.274;2023-05-16T07:34:04;29.20;;;19.30;;
19754;SDS011;10036;47.812;9.274;2023-05-16T07:36:32;27.98;;;20.15;;
19754;SDS011;10036;47.812;9.274;2023-05-16T07:38:59;30.77;;;19.52;;
19754;SDS011;10036;47.812;9.274;2023-05-16T07:41:29;27.17;;;19.48;;
19754;SDS011;10036;47.812;9.274;2023-05-16T07:43:56;25.90;;;18.85;;
19754;SDS011;10036;47.812;9.274;2023-05-16T07:46:23;25.23;;;18.00;;
19754;SDS011;10036;47.812;9.274;2023-05-16T07:48:50;23.33;;;17.38;;
19754;SDS011;10036;47.812;9.274;2023-05-16T07:51:17;23.50;;;16.88;;
19754;SDS011;10036;47.812;9.274;2023-05-16T07:53:44;23.65;;;16.27;;
19754;SDS011;10036;47.812;9.274;2023-05-16T07:56:12;21.95;;;15.88;;
19754;SDS011;10036;47.812;9.274;2023-05-16T07:58:40;23.33;;;16.83;;
19754;SDS011;10036;47.812;9.274;2023-05-16T08:01:07;22.83;;;16.38;;
19754;SDS011;10036;47.812;9.274;2023-05-16T08:03:34;19.27;;;14.95;;
19754;SDS011;10036;47.812;9.274;2023-05-16T08:06:01;22.63;;;15.27;;
19754;SDS011;10036;47.812;9.274;2023-05-16T08:08:28;21.17;;;15.43;;
19754;SDS011;10036;47.812;9.274;2023-05-16T08:10:55;21.67;;;15.20;;
19754;SDS011;10036;47.812;9.274;2023-05-16T08:13:22;18.48;;;14.18;;
19754;SDS011;10036;47.812;9.274;2023-05-16T08:15:50;23.73;;;14.88;;
19754;SDS011;10036;47.812;9.274;2023-05-16T08:18:17;17.38;;;13.80;;
19754;SDS011;10036;47.812;9.274;2023-05-16T08:20:44;18.48;;;13.57;;
19754;SDS011;10036;47.812;9.274;2023-05-16T08:23:11;17.73;;;13.43;;
19754;SDS011;10036;47.812;9.274;2023-05-16T08:25:37;23.00;;;14.15;;
19754;SDS011;10036;47.812;9.274;2023-05-16T08:28:04;18.15;;;14.18;;
19754;SDS011;10036;47.812;9.274;2023-05-16T08:30:31;47.00;;;15.75;;
19754;SDS011;10036;47.812;9.274;2023-05-16T08:32:59;20.85;;;13.50;;
19754;SDS011;10036;47.812;9.274;2023-05-16T08:35:29;83.93;;;17.58;;
19754;SDS011;10036;47.812;9.274;2023-05-16T08:37:56;20.15;;;13.70;;
19754;SDS011;10036;47.812;9.274;2023-05-16T08:40:24;17.15;;;13.48;;
19754;SDS011;10036;47.812;9.274;2023-05-16T08:42:52;41.25;;;14.93;;
19754;SDS011;10036;47.812;9.274;2023-05-16T08:45:19;22.30;;;13.98;;
19754;SDS011;10036;47.812;9.274;2023-05-16T08:47:46;17.30;;;14.27;;
19754;SDS011;10036;47.812;9.274;2023-05-16T08:50:17;28.00;;;15.52;;
19754;SDS011;10036;47.812;9.274;2023-05-16T08:52:44;21.73;;;14.20;;
19754;SDS011;10036;47.812;9.274;2023-05-16T08:55:18;20.83;;;14.57;;
19754;SDS011;10036;47.812;9.274;2023-05-16T08:57:47;24.75;;;15.40;;
19754;SDS011;10036;47.812;9.274;2023-05-16T09:00:15;20.65;;;15.73;;
19754;SDS011;10036;47.812;9.274;2023-05-16T09:02:43;30.73;;;14.63;;
19754;SDS011;10036;47.812;9.274;2023-05-16T09:05:11;19.02;;;15.02;;
19754;SDS011;10036;47.812;9.274;2023-05-16T09:07:40;31.70;;;14.93;;
19754;SDS011;10036;47.812;9.274;2023-05-16T09:10:08;19.05;;;15.38;;
19754;SDS011;10036;47.812;9.274;2023-05-16T09:12:36;20.50;;;15.00;;
19754;SDS011;10036;47.812;9.274;2023-05-16T09:15:05;24.15;;;15.15;;
19754;SDS011;10036;47.812;9.274;2023-05-16T09:17:33;21.23;;;15.25;;
19754;SDS011;10036;47.812;9.274;2023-05-16T09:20:07;23.30;;;15.48;;
19754;SDS011;10036;47.812;9.274;2023-05-16T09:22:35;18.20;;;15.02;;
19754;SDS011;10036;47.812;9.274;2023-05-16T09:25:04;39.13;;;16.40;;
19754;SDS011;10036;47.812;9.274;2023-05-16T09:27:31;19.70;;;14.23;;
19754;SDS011;10036;47.812;9.274;2023-05-16T09:29:58;20.02;;;15.13;;
19754;SDS011;10036;47.812;9.274;2023-05-16T09:32:25;21.95;;;15.43;;
19754;SDS011;10036;47.812;9.274;2023-05-16T09:34:52;20.58;;;15.52;;
19754;SDS011;10036;47.812;9.274;2023-05-16T09:37:22;25.48;;;16.60;;
19754;SDS011;10036;47.812;9.274;2023-05-16T09:39:50;21.95;;;16.90;;
19754;SDS011;10036;47.812;9.274;2023-05-16T09:42:20;20.05;;;15.20;;
19754;SDS011;10036;47.812;9.274;2023-05-16T09:44:47;21.10;;;16.58;;
19754;SDS011;10036;47.812;9.274;2023-05-16T09:47:15;20.45;;;16.27;;
19754;SDS011;10036;47.812;9.274;2023-05-16T09:49:43;22.25;;;16.38;;
19754;SDS011;10036;47.812;9.274;2023-05-16T09:52:10;23.88;;;16.38;;
19754;SDS011;10036;47.812;9.274;2023-05-16T09:54:38;23.92;;;17.92;;
19754;SDS011;10036;47.812;9.274;2023-05-16T09:57:05;22.25;;;16.98;;
19754;SDS011;10036;47.812;9.274;2023-05-16T09:59:35;21.85;;;17.17;;
19754;SDS011;10036;47.812;9.274;2023-05-16T10:02:03;24.38;;;17.33;;
19754;SDS011;10036;47.812;9.274;2023-05-16T10:04:32;21.50;;;17.05;;
19754;SDS011;10036;47.812;9.274;2023-05-16T10:07:00;23.88;;;18.30;;
19754;SDS011;10036;47.812;9.274;2023-05-16T10:09:30;22.35;;;16.88;;
19754;SDS011;10036;47.812;9.274;2023-05-16T10:11:58;19.00;;;15.50;;
19754;SDS011;10036;47.812;9.274;2023-05-16T10:14:28;20.05;;;16.25;;
19754;SDS011;10036;47.812;9.274;2023-05-16T10:17:00;21.42;;;15.93;;
19754;SDS011;10036;47.812;9.274;2023-05-16T10:19:30;19.33;;;15.38;;
19754;SDS011;10036;47.812;9.274;2023-05-16T10:22:02;21.25;;;16.23;;
19754;SDS011;10036;47.812;9.274;2023-05-16T10:24:33;20.58;;;16.75;;
19754;SDS011;10036;47.812;9.274;2023-05-16T10:27:09;26.90;;;19.35;;
19754;SDS011;10036;47.812;9.274;2023-05-16T10:29:36;27.88;;;19.40;;
19754;SDS011;10036;47.812;9.274;2023-05-16T10:32:05;26.90;;;19.83;;
19754;SDS011;10036;47.812;9.274;2023-05-16T10:34:34;31.42;;;21.67;;
19754;SDS011;10036;47.812;9.274;2023-05-16T10:37:01;27.70;;;20.10;;
19754;SDS011;10036;47.812;9.274;2023-05-16T10:39:30;34.45;;;21.88;;
19754;SDS011;10036;47.812;9.274;2023-05-16T10:41:58;28.98;;;20.50;;
19754;SDS011;10036;47.812;9.274;2023-05-16T10:44:25;32.90;;;22.10;;
19754;SDS011;10036;47.812;9.274;2023-05-16T10:46:57;27.55;;;20.35;;
19754;SDS011;10036;47.812;9.274;2023-05-16T10:49:25;29.52;;;20.95;;
19754;SDS011;10036;47.812;9.274;2023-05-16T10:52:06;29.92;;;21.63;;
19754;SDS011;10036;47.812;9.274;2023-05-16T10:54:34;29.50;;;21.55;;
19754;SDS011;10036;47.812;9.274;2023-05-16T10:57:06;27.70;;;20.65;;
19754;SDS011;10036;47.812;9.274;2023-05-16T10:59:39;27.02;;;20.08;;
19754;SDS011;10036;47.812;9.274;2023-05-16T11:02:20;29.75;;;21.20;;
19754;SDS011;10036;47.812;9.274;2023-05-16T11:04:50;27.80;;;20.35;;
19754;SDS011;10036;47.812;9.274;2023-05-16T11:07:20;28.60;;;19.73;;
19754;SDS011;10036;47.812;9.274;2023-05-16T11:10:07;27.15;;;19.38;;
19754;SDS011;10036;47.812;9.274;2023-05-16T11:12:35;27.45;;;19.48;;
19754;SDS011;10036;47.812;9.274;2023-05-16T11:15:17;25.10;;;18.48;;
19754;SDS011;10036;47.812;9.274;2023-05-16T11:17:45;28.98;;;19.00;;
19754;SDS011;10036;47.812;9.274;2023-05-16T11:20:25;25.38;;;18.40;;
19754;SDS011;10036;47.812;9.274;2023-05-16T11:25:52;24.13;;;17.92;;
19754;SDS011;10036;47.812;9.274;2023-05-16T11:28:21;24.80;;;17.40;;
19754;SDS011;10036;47.812;9.274;2023-05-16T11:30:50;26.73;;;16.83;;
19754;SDS011;10036;47.812;9.274;2023-05-16T11:33:20;20.75;;;15.65;;
19754;SDS011;10036;47.812;9.274;2023-05-16T11:36:01;18.60;;;13.60;;
19754;SDS011;10036;47.812;9.274;2023-05-16T11:38:29;16.73;;;12.82;;
19754;SDS011;10036;47.812;9.274;2023-05-16T11:41:06;20.15;;;13.07;;
19754;SDS011;10036;47.812;9.274;2023-05-16T11:43:37;16.30;;;11.85;;
19754;SDS011;10036;47.812;9.274;2023-05-16T11:46:05;15.80;;;11.82;;
19754;SDS011;10036;47.812;9.274;2023-05-16T11:48:32;19.48;;;12.25;;
19754;SDS011;10036;47.812;9.274;2023-05-16T11:51:02;14.68;;;12.38;;
19754;SDS011;10036;47.812;9.274;2023-05-16T11:53:29;15.02;;;11.77;;
19754;SDS011;10036;47.812;9.274;2023-05-16T11:55:56;15.73;;;11.20;;
19754;SDS011;10036;47.812;9.274;2023-05-16T11:58:25;54.28;;;14.00;;
19754;SDS011;10036;47.812;9.274;2023-05-16T12:00:52;16.80;;;10.57;;
19754;SDS011;10036;47.812;9.274;2023-05-16T12:03:19;15.23;;;10.73;;
19754;SDS011;10036;47.812;9.274;2023-05-16T12:05:50;21.42;;;10.85;;
19754;SDS011;10036;47.812;9.274;2023-05-16T12:08:19;11.50;;;9.75;;
19754;SDS011;10036;47.812;9.274;2023-05-16T12:10:48;15.32;;;10.05;;
19754;SDS011;10036;47.812;9.274;2023-05-16T12:13:15;19.15;;;10.75;;
19754;SDS011;10036;47.812;9.274;2023-05-16T12:15:43;35.38;;;11.50;;
19754;SDS011;10036;47.812;9.274;2023-05-16T12:18:10;21.60;;;10.65;;
19754;SDS011;10036;47.812;9.274;2023-05-16T12:20:38;12.55;;;9.52;;
19754;SDS011;10036;47.812;9.274;2023-05-16T12:23:09;13.23;;;11.20;;
19754;SDS011;10036;47.812;9.274;2023-05-16T12:25:37;19.48;;;10.75;;
19754;SDS011;10036;47.812;9.274;2023-05-16T12:28:06;13.23;;;10.70;;
19754;SDS011;10036;47.812;9.274;2023-05-16T12:30:32;16.23;;;10.98;;
19754;SDS011;10036;47.812;9.274;2023-05-16T12:33:00;11.85;;;10.15;;
19754;SDS011;10036;47.812;9.274;2023-05-16T12:35:29;11.73;;;9.70;;
19754;SDS011;10036;47.812;9.274;2023-05-16T12:37:58;13.15;;;10.75;;
19754;SDS011;10036;47.812;9.274;2023-05-16T12:40:27;13.45;;;9.70;;
19754;SDS011;10036;47.812;9.274;2023-05-16T12:42:55;13.05;;;10.50;;
19754;SDS011;10036;47.812;9.274;2023-05-16T12:45:22;10.98;;;9.43;;
19754;SDS011;10036;47.812;9.274;2023-05-16T12:47:49;11.00;;;9.48;;
19754;SDS011;10036;47.812;9.274;2023-05-16T12:50:16;18.88;;;10.35;;
19754;SDS011;10036;47.812;9.274;2023-05-16T12:52:46;12.02;;;9.40;;
19754;SDS011;10036;47.812;9.274;2023-05-16T12:55:15;11.80;;;9.35;;
19754;SDS011;10036;47.812;9.274;2023-05-16T12:57:42;10.27;;;8.90;;
19754;SDS011;10036;47.812;9.274;2023-05-16T13:00:12;12.82;;;9.20;;
19754;SDS011;10036;47.812;9.274;2023-05-16T13:02:41;11.98;;;8.45;;
19754;SDS011;10036;47.812;9.274;2023-05-16T13:05:08;11.25;;;8.95;;
19754;SDS011;10036;47.812;9.274;2023-05-16T13:07:35;9.93;;;8.63;;
19754;SDS011;10036;47.812;9.274;2023-05-16T13:10:04;9.48;;;8.48;;
19754;SDS011;10036;47.812;9.274;2023-05-16T13:12:34;12.88;;;9.57;;
19754;SDS011;10036;47.812;9.274;2023-05-16T13:15:05;12.57;;;9.00;;
19754;SDS011;10036;47.812;9.274;2023-05-16T13:17:34;13.07;;;9.45;;
19754;SDS011;10036;47.812;9.274;2023-05-16T13:20:01;10.45;;;8.43;;
19754;SDS011;10036;47.812;9.274;2023-05-16T13:22:32;11.50;;;8.38;;
19754;SDS011;10036;47.812;9.274;2023-05-16T13:24:59;9.73;;;8.32;;
19754;SDS011;10036;47.812;9.274;2023-05-16T13:27:28;9.23;;;8.25;;
19754;SDS011;10036;47.812;9.274;2023-05-16T13:29:55;10.85;;;9.27;;
19754;SDS011;10036;47.812;9.274;2023-05-16T13:32:22;12.70;;;9.68;;
19754;SDS011;10036;47.812;9.274;2023-05-16T13:34:50;10.38;;;8.50;;
19754;SDS011;10036;47.812;9.274;2023-05-16T13:37:17;10.00;;;8.70;;
19754;SDS011;10036;47.812;9.274;2023-05-16T13:39:44;13.20;;;9.68;;
19754;SDS011;10036;47.812;9.274;2023-05-16T13:42:12;14.20;;;10.48;;
19754;SDS011;10036;47.812;9.274;2023-05-16T13:44:39;14.55;;;10.60;;
19754;SDS011;10036;47.812;9.274;2023-05-16T13:47:06;11.15;;;9.30;;
19754;SDS011;10036;47.812;9.274;2023-05-16T13:49:33;9.52;;;8.50;;
19754;SDS011;10036;47.812;9.274;2023-05-16T13:52:03;11.57;;;8.02;;
19754;SDS011;10036;47.812;9.274;2023-05-16T13:54:32;10.98;;;8.00;;
19754;SDS011;10036;47.812;9.274;2023-05-16T13:56:59;9.50;;;8.50;;
19754;SDS011;10036;47.812;9.274;2023-05-16T13:59:27;11.95;;;8.63;;
19754;SDS011;10036;47.812;9.274;2023-05-16T14:01:54;9.75;;;8.38;;
19754;SDS011;10036;47.812;9.274;2023-05-16T14:04:21;10.20;;;8.48;;
19754;SDS011;10036;47.812;9.274;2023-05-16T14:06:48;10.43;;;8.15;;
19754;SDS011;10036;47.812;9.274;2023-05-16T14:09:16;11.98;;;8.48;;
19754;SDS011;10036;47.812;9.274;2023-05-16T14:11:43;10.77;;;9.45;;
19754;SDS011;10036;47.812;9.274;2023-05-16T14:14:10;13.75;;;9.68;;
19754;SDS011;10036;47.812;9.274;2023-05-16T14:16:36;9.75;;;8.75;;
19754;SDS011;10036;47.812;9.274;2023-05-16T14:19:07;12.35;;;10.15;;
19754;SDS011;10036;47.812;9.274;2023-05-16T14:21:34;12.38;;;9.68;;
19754;SDS011;10036;47.812;9.274;2023-05-16T14:24:01;12.88;;;10.20;;
19754;SDS011;10036;47.812;9.274;2023-05-16T14:26:30;12.77;;;9.85;;
19754;SDS011;10036;47.812;9.274;2023-05-16T14:28:57;12.30;;;9.82;;
19754;SDS011;10036;47.812;9.274;2023-05-16T14:31:23;12.30;;;10.32;;
19754;SDS011;10036;47.812;9.274;2023-05-16T14:33:52;12.10;;;9.63;;
19754;SDS011;10036;47.812;9.274;2023-05-16T14:36:19;13.18;;;9.98;;
19754;SDS011;10036;47.812;9.274;2023-05-16T14:38:46;14.88;;;10.32;;
19754;SDS011;10036;47.812;9.274;2023-05-16T14:41:13;15.07;;;10.60;;